Home > Products > Valid Products > MTR

000
SAUS43 KBIS 011053
MTRN60
METAR KN60 011052Z AUTO 26004KT 09/08 A2975 RMK AO1 SLP073 T00890083





000
SAUS43 KBIS 010954
MTRN60
METAR KN60 010952Z AUTO 00000KT 09/09 A2977 RMK AO1 SLP079 T00940094





000
SAUS43 KBIS 010853
MTRN60
METAR KN60 010852Z AUTO 00000KT 09/09 A2977 RMK AO1 SLP080 T00940089
51011





000
SAUS43 KBIS 010754
MTRN60
METAR KN60 010752Z AUTO 35005KT 11/10 A2976 RMK AO1 SLP074 T01060100





000
SAUS43 KBIS 010653
MTRN60
METAR KN60 010652Z AUTO 00000KT 12/11 A2975 RMK AO1 SLP072 T01170106





000
SAUS43 KBIS 010554
MTRN60
METAR KN60 010552Z AUTO 29004KT 12/11 A2973 RMK AO1 SLP065 60001
T01220106 10222 20117 402390117 53002





000
SAUS43 KBIS 010454
MTRN60
METAR KN60 010452Z AUTO 30005KT 13/12 A2972 RMK AO1 SLP063 T01330122





000
SAUS43 KBIS 010354
MTRN60
METAR KN60 010352Z AUTO 26005KT 14/13 A2973 RMK AO1 SLP065 T01390128





000
SAUS43 KBIS 010254
MTRN60
METAR KN60 010252Z AUTO 31009KT 15/13 A2973 RMK AO1 SLP063 P0001
60001 T01500128 51011





000
SAUS43 KBIS 010154
MTRN60
METAR KN60 010152Z AUTO 33006KT 15/12 A2972 RMK AO1 SLP063 T01500117





000
SAUS43 KBIS 010053
MTRN60
METAR KN60 010052Z AUTO 36004KT 20/11 A2971 RMK AO1 SLP054 T02000111





000
SAUS43 KBIS 312354
MTRN60
METAR KN60 312352Z AUTO 35006KT 22/11 A2969 RMK AO1 SLP048 60007
T02220106 10239 20167 53003





000
SAUS43 KBIS 312253
MTRN60
METAR KN60 312252Z AUTO 35008KT 23/12 A2968 RMK AO1 SLP043 T02280117





000
SAUS43 KBIS 312154
MTRN60
METAR KN60 312152Z AUTO 23003KT 22/15 A2968 RMK AO1 SLP043 T02220150





000
SAUS43 KBIS 312053
MTRN60
METAR KN60 312052Z AUTO 00000KT 19/16 A2968 RMK AO1 SLP047 P0007
60007 T01890156 53001





000
SAUS43 KBIS 311954
MTRN60
METAR KN60 311952Z AUTO 29006KT 23/12 A2968 RMK AO1 SLP043 T02330117





000
SAUS43 KBIS 311853
MTRN60
METAR KN60 311852Z AUTO 30010G15KT 23/13 A2967 RMK AO1 SLP040
T02280128





000
SAUS43 KBIS 311754
MTRN60
METAR KN60 311752Z AUTO 32007KT 22/15 A2968 RMK AO1 SLP044 T02170150
10217 20156 51009





000
SAUS43 KBIS 311654
MTRN60
METAR KN60 311652Z AUTO 33009KT 20/15 A2966 RMK AO1 SLP039 T02000150





000
SAUS43 KBIS 311554
MTRN60
METAR KN60 311552Z AUTO 31011KT 18/16 A2967 RMK AO1 SLP043 T01830156





000
SAUS43 KBIS 311454
MTRN60
METAR KN60 311452Z AUTO 34013G18KT 18/16 A2965 RMK AO1 SLP036
T01780156 51012





000
SAUS43 KBIS 311354
MTRN60
METAR KN60 311352Z AUTO 31007KT 17/17 A2965 RMK AO1 SLP034 T01720167





000
SAUS43 KBIS 311253
MTRN60
METAR KN60 311252Z AUTO 31003KT 16/16 A2963 RMK AO1 SLP028 T01610156





000
SAUS43 KBIS 311154
MTRN60
METAR KN60 311152Z AUTO 36004KT 16/16 A2961 RMK AO1 SLP023 60006
70020 T01610161 10167 20161 55001





000
SAUS43 KBIS 311053
MTRN60
METAR KN60 311052Z AUTO 00000KT 17/16 A2960 RMK AO1 SLP018 T01670161





000
SAUS43 KBIS 310954
MTRN60
METAR KN60 310952Z AUTO 00000KT 16/16 A2962 RMK AO1 SLP023 P0001
T01610156





000
SAUS43 KBIS 310853
MTRN60
METAR KN60 310852Z AUTO 00000KT 17/16 A2962 RMK AO1 SLP022 P0001
60005 T01670161 58010





000
SAUS43 KBIS 310754
MTRN60
METAR KN60 310752Z AUTO 00000KT 17/16 A2963 RMK AO1 SLP028 T01670161





000
SAUS43 KBIS 310653
MTRN60
METAR KN60 310652Z AUTO 14004KT 17/16 A2965 RMK AO1 SLP034 P0004
T01670161





000
SAUS43 KBIS 310554
MTRN60
METAR KN60 310552Z AUTO 14008G17KT 17/16 A2965 RMK AO1 SLP035 P0008
60014 T01670156 10206 20167 402330083 58014





000
SAUS43 KBIS 310454
MTRN60
METAR KN60 310452Z AUTO 15008KT 17/16 A2969 RMK AO1 SLP048 P0006
T01720156





000
SAUS43 KBIS 310354
MTRN60
METAR KN60 310352Z AUTO 15009KT 18/14 A2969 RMK AO1 SLP051 T01830144





000
SAUS43 KBIS 310254
MTRN60
METAR KN60 310252Z AUTO 14007KT 19/14 A2969 RMK AO1 SLP050 T01890144
55013





000
SAUS43 KBIS 310154
MTRN60
METAR KN60 310152Z AUTO 13007KT 19/14 A2968 RMK AO1 SLP049 T01890144





000
SAUS43 KBIS 310053
MTRN60
METAR KN60 310052Z AUTO 14004KT 19/14 A2971 RMK AO1 SLP061 T01940144





000
SAUS43 KBIS 302354
MTRN60
METAR KN60 302352Z AUTO 15006KT 21/14 A2973 RMK AO1 SLP067 T02060139
10233 20200 56014





000
SAUS43 KBIS 302253
MTRN60
METAR KN60 302252Z AUTO 15009KT 22/14 A2973 RMK AO1 SLP067 T02220139





000
SAUS43 KBIS 302154
MTRN60
METAR KN60 302152Z AUTO 16010KT 23/13 A2975 RMK AO1 SLP072 T02330133





000
SAUS43 KBIS 302054
MTRN60
METAR KN60 302052Z AUTO 16010G18KT 23/12 A2977 RMK AO1 SLP081
T02280122 56025





000
SAUS43 KBIS 301954
MTRN60
METAR KN60 301952Z AUTO 17011G17KT 23/13 A2980 RMK AO1 SLP090
T02280128





000
SAUS43 KBIS 301853
MTRN60
METAR KN60 301852Z AUTO 16012G18KT 21/12 A2982 RMK AO1 SLP099
T02110117





000
SAUS43 KBIS 301754
MTRN60
METAR KN60 301752Z AUTO 15011KT 20/11 A2985 RMK AO1 SLP109 T02000111
10200 20100 58021





000
SAUS43 KBIS 301653
MTRN60
METAR KN60 301652Z AUTO 17009KT 19/11 A2988 RMK AO1 SLP119 T01890111





000
SAUS43 KBIS 301554
MTRN60
METAR KN60 301552Z AUTO 14009KT 17/11 A2991 RMK AO1 SLP127 T01720111





000
SAUS43 KBIS 301454
MTRN60
METAR KN60 301452Z AUTO 17009KT 15/13 A2992 RMK AO1 SLP132 T01500128
58009





000
SAUS43 KBIS 301354
MTRN60
METAR KN60 301352Z AUTO 16008KT 14/13 A2993 RMK AO1 SLP137 T01440128





000
SAUS43 KBIS 301254
MTRN60
METAR KN60 301252Z AUTO 15006KT 12/11 A2994 RMK AO1 SLP139 T01170111





000
SAUS43 KBIS 301153
MTRN60
METAR KN60 301152Z AUTO 11005KT 10/09 A2995 RMK AO1 SLP141 T01000094
10117 20083 56010





000
SAUS43 KBIS 301054
MTRN60
METAR KN60 301052Z AUTO 10003KT 10/09 A2995 RMK AO1 SLP143 T01000094





000
SAUS43 KBIS 300953
MTRN60
METAR KN60 300952Z AUTO 09004KT 08/08 A2996 RMK AO1 SLP146 T00830078





000
SAUS43 KBIS 300854
MTRN60
METAR KN60 300852Z AUTO 00000KT 09/08 A2998 RMK AO1 SLP152 T00940083
55000





000
SAUS43 KBIS 300753
MTRN60
METAR KN60 300752Z AUTO 00000KT 09/09 A2998 RMK AO1 SLP152 T00940089





000
SAUS43 KBIS 300653
MTRN60
METAR KN60 300652Z AUTO 00000KT 10/09 A2998 RMK AO1 SLP151 T01000094





000
SAUS43 KBIS 300554
MTRN60
METAR KN60 300552Z AUTO 00000KT 11/10 A2998 RMK AO1 SLP152 T01110100
10194 20100 402170100 50001





000
SAUS43 KBIS 300453
MTRN60
METAR KN60 300452Z AUTO 00000KT 11/10 A2998 RMK AO1 SLP153 T01110100





000
SAUS43 KBIS 300354
MTRN60
METAR KN60 300352Z AUTO 04003KT 13/11 A2998 RMK AO1 SLP152 T01280106





000
SAUS43 KBIS 300253
MTRN60
METAR KN60 300252Z AUTO 00000KT 13/11 A2998 RMK AO1 SLP151 T01330111
53008





000
SAUS43 KBIS 300154
MTRN60
METAR KN60 300152Z AUTO 05003KT 16/12 A2996 RMK AO1 SLP146 T01560117





000
SAUS43 KBIS 300053
MTRN60
METAR KN60 300052Z AUTO 05004KT 18/12 A2996 RMK AO1 SLP141 T01830117





000
SAUS43 KBIS 292354
MTRN60
METAR KN60 292352Z AUTO 03009KT 19/11 A2995 RMK AO1 SLP139 T01940111
10217 20183 52005





000
SAUS43 KBIS 292253
MTRN60
METAR KN60 292252Z AUTO 04010G16KT 21/11 A2995 RMK AO1 SLP136
T02060106





000
SAUS43 KBIS 292154
MTRN60
METAR KN60 292152Z AUTO 03012G18KT 21/12 A2994 RMK AO1 SLP133
T02110117





000
SAUS43 KBIS 292054
MTRN60
METAR KN60 292052Z AUTO 02009G16KT 340V060 20/12 A2993 RMK AO1
SLP132 T02000122 51007





000
SAUS43 KBIS 291954
MTRN60
METAR KN60 291952Z AUTO 01010G18KT 20/13 A2993 RMK AO1 SLP132
T02000133





000
SAUS43 KBIS 291853
MTRN60
METAR KN60 291852Z AUTO 02010G19KT 19/13 A2992 RMK AO1 SLP127
T01940133





000
SAUS43 KBIS 291754
MTRN60
METAR KN60 291752Z AUTO 35013G18KT 19/15 A2991 RMK AO1 SLP124
T01890150 10189 20150 51013





000
SAUS43 KBIS 291653
MTRN60
METAR KN60 291652Z AUTO 36010G18KT 18/16 A2990 RMK AO1 SLP120
T01780161





000
SAUS43 KBIS 291554
MTRN60
METAR KN60 291552Z AUTO 31009KT 17/16 A2989 RMK AO1 SLP118 T01720156





000
SAUS43 KBIS 291453
MTRN60
METAR KN60 291452Z AUTO 29008KT 17/15 A2987 RMK AO1 SLP110 T01670150
53021





000
SAUS43 KBIS 291354
MTRN60
METAR KN60 291352Z AUTO 29011G18KT 16/14 A2986 RMK AO1 PRESRR SLP106
T01610144





000
SAUS43 KBIS 291253
MTRN60
METAR KN60 291252Z AUTO 31007KT 16/14 A2981 RMK AO1 SLP090 T01560139





000
SAUS43 KBIS 291154
MTRN60
METAR KN60 291152Z AUTO 30009KT 15/14 A2981 RMK AO1 SLP086 T01500144
10189 20150 51020





    US Dept of Commerce
    National Oceanic and Atmospheric Administration
    National Weather Service
    1325 East West Highway
    Silver Spring, MD 20910
    Page Author: NWS Internet Services Team
Disclaimer
Information Quality
Credits
Glossary
Privacy Policy
Freedom of Information Act (FOIA)
About Us
Career Opportunities